Terminal Aerodrome Forecast
Issued by NWS

Home | Current Version | Previous Version | Graphics & Text | Print | Product List | Glossary On
Versions: 1 2 3 4 5 6 7 8 9 10 11 12 13 14 15 16 17
000
FTUS43 KTOP 230200 AAB
TAFFOE
TAF AMD
KFOE 230229Z 2302/2324 19014G23KT 6SM BR OVC013
     FM230700 19012KT 3SM -DZ BR OVC002
     FM231500 18008KT 3SM -DZ BR VCTS BKN006 OVC020CB
     FM232000 31018G28KT 5SM -RA BR BKN020=

USA.gov is the U.S. government's official web portal to all federal, state and local government web resources and services.